Time;durP1;ratioP1;P1;durP2;ratioP2;P2;SDS_P1;SDS_P2;PMS_P1;PMS_P2;Temp;Humidity;BMP_temperature;BMP_pressure;BME280_temperature;BME280_humidity;BME280_pressure;Samples;Min_cycle;Max_cycle;Signal;HPM_P1;HPM_P2
2023/07/07 00:00:51;;;;;;;3.40;2.50;;;;;;;13.35;100.00;101939.06;4974574;28;20091;-76
2023/07/07 00:03:37;;;;;;;4.82;2.70;;;;;;;13.32;100.00;101939.19;4983706;28;20084;-75
2023/07/07 00:06:23;;;;;;;4.60;2.40;;;;;;;13.32;100.00;101936.53;4982757;28;20042;-76
2023/07/07 00:09:08;;;;;;;6.72;3.22;;;;;;;13.32;100.00;101941.84;4969519;28;20033;-75
2023/07/07 00:11:54;;;;;;;2.80;2.38;;;;;;;13.29;100.00;101939.34;4984272;28;20064;-75
2023/07/07 00:14:40;;;;;;;3.00;2.30;;;;;;;13.24;100.00;101942.16;4983931;28;20133;-75
2023/07/07 00:17:26;;;;;;;4.47;3.00;;;;;;;13.20;100.00;101937.00;4969240;28;20038;-76
2023/07/07 00:20:14;;;;;;;5.40;3.33;;;;;;;13.20;100.00;101929.03;4985792;28;20346;-76
2023/07/07 00:23:00;;;;;;;4.55;2.75;;;;;;;13.22;100.00;101932.50;4974437;28;20139;-75
2023/07/07 00:25:56;;;;;;;6.25;2.60;;;;;;;13.22;100.00;101932.50;4988727;28;20046;-76
2023/07/07 00:28:42;;;;;;;5.55;3.15;;;;;;;13.20;100.00;101943.22;4976423;28;20884;-76
2023/07/07 00:31:29;;;;;;;3.58;2.55;;;;;;;13.15;100.00;101934.53;4986241;28;20508;-75
2023/07/07 00:34:15;;;;;;;5.95;2.80;;;;;;;13.12;100.00;101932.88;4973854;28;20030;-76
2023/07/07 00:37:01;;;;;;;8.70;2.83;;;;;;;13.13;100.00;101934.59;4985126;28;20374;-76
2023/07/07 00:39:46;;;;;;;3.70;2.85;;;;;;;13.12;100.00;101932.88;4985151;28;21006;-75
2023/07/07 00:42:32;;;;;;;3.70;2.47;;;;;;;13.12;100.00;101935.53;4984436;28;20964;-75
2023/07/07 00:45:20;;;;;;;3.65;2.70;;;;;;;13.08;100.00;101927.72;4983695;28;20041;-75
2023/07/07 00:48:10;;;;;;;5.68;3.08;;;;;;;13.02;100.00;101934.16;4974439;28;20045;-75
2023/07/07 00:51:09;;;;;;;4.43;2.78;;;;;;;12.95;100.00;101932.63;4971629;28;20034;-75
2023/07/07 00:53:55;;;;;;;3.25;2.60;;;;;;;12.90;100.00;101930.16;4974162;28;20045;-75
2023/07/07 00:56:47;;;;;;;4.90;2.80;;;;;;;12.86;100.00;101945.34;4977742;28;20169;-75
2023/07/07 00:59:39;;;;;;;5.10;3.55;;;;;;;12.81;100.00;101928.72;4986598;28;20053;-75
2023/07/07 01:02:26;;;;;;;4.72;3.30;;;;;;;12.82;100.00;101924.28;4984876;28;22309;-74
2023/07/07 01:05:11;;;;;;;5.20;3.72;;;;;;;12.83;100.00;101924.22;4986195;28;20045;-74
2023/07/07 01:07:59;;;;;;;6.20;3.78;;;;;;;12.85;100.00;101930.34;4985687;28;20164;-74
2023/07/07 01:10:45;;;;;;;4.68;3.53;;;;;;;12.83;100.00;101937.50;4985609;28;20034;-75
2023/07/07 01:13:31;;;;;;;5.55;3.90;;;;;;;12.83;100.00;101926.88;4983374;28;20034;-75
2023/07/07 01:16:30;;;;;;;6.25;3.90;;;;;;;12.79;100.00;101919.94;4987242;28;20073;-75
2023/07/07 01:19:47;;;;;;;5.35;4.20;;;;;;;12.76;100.00;101925.38;4984940;28;20038;-75
2023/07/07 01:22:57;;;;;;;6.13;4.07;;;;;;;12.73;100.00;101933.44;4986358;28;20077;-75
2023/07/07 01:26:05;;;;;;;6.22;3.90;;;;;;;12.71;100.00;101932.66;4988570;28;20784;-75
2023/07/07 01:29:03;;;;;;;6.55;3.85;;;;;;;12.68;100.00;101928.31;4973833;28;20041;-75
2023/07/07 01:31:58;;;;;;;6.40;3.70;;;;;;;12.64;100.00;101924.03;4984906;28;20040;-75
2023/07/07 01:34:46;;;;;;;6.88;3.47;;;;;;;12.59;100.00;101928.66;4967859;28;20038;-75
2023/07/07 01:37:32;;;;;;;5.28;3.38;;;;;;;12.57;100.00;101923.41;4973949;28;20049;-75
2023/07/07 01:40:18;;;;;;;5.55;3.70;;;;;;;12.54;100.00;101931.50;4967217;28;20112;-74
2023/07/07 01:43:12;;;;;;;5.25;3.67;;;;;;;12.50;100.00;101924.53;4986089;28;20041;-77
2023/07/07 01:46:05;;;;;;;6.57;4.10;;;;;;;12.48;100.00;101921.94;4958566;28;21909;-74
2023/07/07 01:48:57;;;;;;;5.43;3.47;;;;;;;12.48;100.00;101924.59;4983991;28;20652;-75
2023/07/07 01:52:06;;;;;;;5.40;3.67;;;;;;;12.46;100.00;101925.56;4984648;28;20033;-75
2023/07/07 01:55:01;;;;;;;7.05;3.42;;;;;;;12.43;100.00;101925.69;4986971;28;21608;-76
2023/07/07 01:57:52;;;;;;;6.78;3.65;;;;;;;12.41;100.00;101925.75;4977182;28;20469;-76
2023/07/07 02:00:38;;;;;;;5.43;3.65;;;;;;;12.38;100.00;101917.00;4975520;28;20189;-76
2023/07/07 02:03:24;;;;;;;6.85;3.60;;;;;;;12.34;100.00;101921.56;4984492;28;20033;-76
2023/07/07 02:06:09;;;;;;;4.97;3.67;;;;;;;12.31;100.00;101914.56;4981101;28;20038;-75
2023/07/07 02:08:55;;;;;;;5.75;3.63;;;;;;;12.28;100.00;101914.69;4984161;28;20178;-75
2023/07/07 02:11:41;;;;;;;6.50;3.70;;;;;;;12.26;100.00;101915.69;4984830;28;20052;-75
2023/07/07 02:14:26;;;;;;;5.45;4.20;;;;;;;12.25;100.00;101917.44;4984457;28;20034;-76
2023/07/07 02:17:15;;;;;;;6.57;3.50;;;;;;;12.21;100.00;101914.03;4982832;28;20438;-76
2023/07/07 02:20:01;;;;;;;8.30;3.70;;;;;;;12.20;100.00;101927.38;4983790;28;20666;-75
2023/07/07 02:22:47;;;;;;;7.07;3.50;;;;;;;12.17;100.00;101919.50;4984000;28;20046;-76
2023/07/07 02:25:32;;;;;;;6.20;3.90;;;;;;;12.15;100.00;101926.69;4988158;28;20042;-75
2023/07/07 02:28:18;;;;;;;5.72;3.80;;;;;;;12.12;100.00;101921.47;4987468;28;20068;-75
2023/07/07 02:31:05;;;;;;;4.60;3.53;;;;;;;12.07;100.00;101922.50;4984100;28;20052;-76
2023/07/07 02:33:51;;;;;;;5.90;3.35;;;;;;;12.05;100.00;101920.81;4972049;28;20049;-76
2023/07/07 02:36:36;;;;;;;5.25;3.45;;;;;;;12.05;100.00;101920.81;4985601;28;20049;-75
2023/07/07 02:39:22;;;;;;;5.78;3.55;;;;;;;12.05;100.00;101919.00;4984994;28;20046;-76
2023/07/07 02:42:08;;;;;;;5.03;3.38;;;;;;;12.05;100.00;101921.66;4973283;28;20168;-75
2023/07/07 02:44:54;;;;;;;7.30;3.90;;;;;;;12.07;100.00;101930.47;4985290;28;20125;-75
2023/07/07 02:47:40;;;;;;;5.13;4.00;;;;;;;12.07;100.00;101933.13;4986839;28;20036;-75
2023/07/07 02:50:25;;;;;;;7.30;4.03;;;;;;;12.08;100.00;101929.53;4957958;28;20038;-75
2023/07/07 02:53:11;;;;;;;6.88;4.38;;;;;;;12.13;100.00;101939.09;4986086;28;20034;-75
2023/07/07 02:55:58;;;;;;;6.68;4.25;;;;;;;12.14;100.00;101939.06;4986528;28;20497;-75
2023/07/07 02:58:46;;;;;;;6.78;4.25;;;;;;;12.16;100.00;101941.69;4987447;28;20554;-75
2023/07/07 03:01:32;;;;;;;8.27;4.82;;;;;;;12.17;100.00;101943.41;4980076;28;20042;-75
2023/07/07 03:04:18;;;;;;;9.77;5.22;;;;;;;12.18;100.00;101934.50;4985920;28;21529;-75
2023/07/07 03:07:04;;;;;;;7.78;4.88;;;;;;;12.19;100.00;101944.22;4984822;28;20034;-75
2023/07/07 03:09:50;;;;;;;10.25;5.65;;;;;;;12.19;100.00;101949.53;4971909;28;20481;-75
2023/07/07 03:12:36;;;;;;;8.05;5.25;;;;;;;12.19;100.00;101946.88;4987911;28;21948;-75
2023/07/07 03:15:21;;;;;;;9.70;6.18;;;;;;;12.18;100.00;101946.03;4988060;28;20041;-75
2023/07/07 03:18:09;;;;;;;9.00;5.95;;;;;;;12.19;100.00;101945.09;4977015;28;20037;-75
2023/07/07 03:20:55;;;;;;;10.38;6.40;;;;;;;12.20;100.00;101945.97;4987825;28;20233;-75
2023/07/07 03:23:40;;;;;;;9.57;6.10;;;;;;;12.20;100.00;101946.81;4978347;28;20061;-75
2023/07/07 03:26:28;;;;;;;10.60;6.60;;;;;;;12.21;100.00;101942.38;4986512;28;20180;-75
2023/07/07 03:29:13;;;;;;;11.73;6.57;;;;;;;12.21;100.00;101950.34;4988168;28;20046;-74
2023/07/07 03:32:02;;;;;;;12.35;6.53;;;;;;;12.19;100.00;101955.72;4988457;28;20424;-75
2023/07/07 03:34:49;;;;;;;10.93;6.50;;;;;;;12.19;100.00;101954.81;4988131;28;20034;-75
2023/07/07 03:37:39;;;;;;;11.50;6.85;;;;;;;12.18;100.00;101951.31;4977892;28;20041;-75
2023/07/07 03:40:25;;;;;;;10.63;6.72;;;;;;;12.18;100.00;101953.09;4990394;28;20029;-75
2023/07/07 03:43:11;;;;;;;12.85;7.25;;;;;;;12.17;100.00;101954.03;4992213;28;20034;-74
2023/07/07 03:46:12;;;;;;;14.30;7.22;;;;;;;12.17;100.00;101949.59;4988690;28;20510;-76
2023/07/07 03:48:59;;;;;;;11.40;6.95;;;;;;;12.16;100.00;101957.59;4986940;28;20041;-75
2023/07/07 03:51:44;;;;;;;13.25;7.75;;;;;;;12.16;100.00;101953.16;4989040;28;20041;-76
2023/07/07 03:54:30;;;;;;;12.70;7.00;;;;;;;12.17;100.00;101954.03;4989720;28;20046;-74
2023/07/07 03:57:16;;;;;;;10.38;7.22;;;;;;;12.17;100.00;101964.66;4978356;28;20026;-74
2023/07/07 04:00:03;;;;;;;13.18;7.85;;;;;;;12.16;100.00;101961.09;4976832;28;20604;-75
2023/07/07 04:02:49;;;;;;;10.82;7.85;;;;;;;12.15;100.00;101955.88;4987828;28;20054;-75
2023/07/07 04:05:45;;;;;;;15.30;7.93;;;;;;;12.15;100.00;101956.72;4987526;28;22419;-75
2023/07/07 04:08:33;;;;;;;11.70;8.27;;;;;;;12.18;100.00;101961.94;4986796;28;20042;-74
2023/07/07 04:11:20;;;;;;;14.18;8.50;;;;;;;12.19;100.00;101965.44;4973642;28;20076;-75
2023/07/07 04:14:06;;;;;;;14.85;8.98;;;;;;;12.20;100.00;101968.06;4976236;28;22060;-75
2023/07/07 04:16:53;;;;;;;16.50;9.07;;;;;;;12.20;100.00;101965.41;4986953;28;20897;-74
2023/07/07 04:19:38;;;;;;;15.02;8.98;;;;;;;12.24;100.00;101974.13;4988411;28;20418;-75
2023/07/07 04:22:24;;;;;;;14.70;8.88;;;;;;;12.25;100.00;101967.91;4990083;28;20074;-75
2023/07/07 04:25:13;;;;;;;13.07;9.20;;;;;;;12.28;100.00;101967.81;4990428;28;20789;-74
2023/07/07 04:27:59;;;;;;;16.38;9.60;;;;;;;12.32;100.00;101973.88;4988163;28;20030;-75
2023/07/07 04:30:50;;;;;;;14.07;9.20;;;;;;;12.35;100.00;101973.75;4973959;28;20038;-75
2023/07/07 04:33:36;;;;;;;15.90;9.75;;;;;;;12.38;100.00;101973.66;4988265;28;20115;-75
2023/07/07 04:36:23;;;;;;;16.17;9.45;;;;;;;12.44;100.00;101975.22;4986980;28;20029;-75
2023/07/07 04:39:08;;;;;;;14.10;9.15;;;;;;;12.48;100.00;101975.06;4986907;28;20034;-75
2023/07/07 04:41:54;;;;;;;18.23;10.45;;;;;;;12.53;100.00;101971.38;4990131;28;20046;-75
2023/07/07 04:44:40;;;;;;;20.30;10.48;;;;;;;12.57;100.00;101976.53;4986906;28;20748;-75
2023/07/07 04:47:26;;;;;;;16.02;10.43;;;;;;;12.62;100.00;101977.22;4970424;28;20041;-75
2023/07/07 04:50:12;;;;;;;17.70;10.23;;;;;;;12.67;100.00;101976.19;4975646;28;20037;-75
2023/07/07 04:52:57;;;;;;;17.63;10.85;;;;;;;12.72;100.00;101979.53;4990119;28;20568;-75
2023/07/07 04:55:45;;;;;;;15.68;10.25;;;;;;;12.77;100.00;101969.63;4991142;28;20319;-75
2023/07/07 04:58:31;;;;;;;18.20;10.60;;;;;;;12.84;100.00;101980.88;4987436;28;20038;-75
2023/07/07 05:01:20;;;;;;;16.55;10.43;;;;;;;12.89;100.00;101976.25;4985512;28;20041;-75
2023/07/07 05:04:08;;;;;;;18.77;10.70;;;;;;;12.95;100.00;101970.72;4974996;28;20037;-75
2023/07/07 05:06:54;;;;;;;13.40;10.38;;;;;;;13.04;100.00;101977.50;4988453;28;20519;-75
2023/07/07 05:09:40;;;;;;;16.58;10.35;;;;;;;13.12;100.00;101978.06;4987105;28;20040;-75
2023/07/07 05:12:26;;;;;;;16.83;10.60;;;;;;;13.21;100.00;101981.28;4985472;28;20034;-74
2023/07/07 05:15:12;;;;;;;17.73;10.85;;;;;;;13.29;100.00;101987.19;4976739;28;20152;-74
2023/07/07 05:17:57;;;;;;;17.75;11.30;;;;;;;13.38;100.00;101985.94;4975431;28;20037;-75
2023/07/07 05:20:43;;;;;;;17.25;11.77;;;;;;;13.47;100.00;101990.97;4987892;28;20413;-74
2023/07/07 05:23:29;;;;;;;20.13;11.63;;;;;;;13.57;100.00;101989.66;4988538;28;20045;-74
2023/07/07 05:26:15;;;;;;;17.17;11.40;;;;;;;13.67;100.00;101986.63;4987634;28;20038;-75
2023/07/07 05:29:03;;;;;;;17.73;11.98;;;;;;;13.78;100.00;101999.50;4984332;28;20113;-75
2023/07/07 05:31:48;;;;;;;21.00;12.48;;;;;;;13.89;100.00;101993.75;4972838;28;20069;-75
2023/07/07 05:34:34;;;;;;;19.05;11.95;;;;;;;13.99;100.00;101995.97;4975152;28;20469;-75
2023/07/07 05:37:20;;;;;;;15.73;10.82;;;;;;;14.13;100.00;102006.00;4977784;28;20142;-75
2023/07/07 05:40:07;;;;;;;18.42;10.77;;;;;;;14.26;100.00;102005.50;4978336;28;20645;-75
2023/07/07 05:42:53;;;;;;;18.92;11.32;;;;;;;14.40;100.00;102007.59;4982593;28;20046;-76
2023/07/07 05:45:41;;;;;;;18.95;10.60;;;;;;;14.54;100.00;102009.63;4983312;28;20033;-76
2023/07/07 05:48:28;;;;;;;13.15;9.80;;;;;;;14.70;100.00;102009.81;4982966;28;20034;-75
2023/07/07 05:51:16;;;;;;;17.70;10.20;;;;;;;14.90;100.00;102010.75;4981339;28;20050;-75
2023/07/07 05:54:02;;;;;;;16.77;9.85;;;;;;;15.10;100.00;102012.53;4987320;28;20092;-74
2023/07/07 05:56:49;;;;;;;13.38;9.45;;;;;;;15.28;100.00;102018.81;4988389;28;20037;-75
2023/07/07 05:59:35;;;;;;;15.15;9.35;;;;;;;15.47;100.00;102017.91;4983391;28;20602;-74
2023/07/07 06:02:21;;;;;;;14.93;8.82;;;;;;;15.71;100.00;102018.56;4960330;28;21218;-75
2023/07/07 06:05:07;;;;;;;15.45;9.35;;;;;;;15.95;100.00;102021.00;4969231;28;20786;-76
2023/07/07 06:07:54;;;;;;;12.73;8.73;;;;;;;16.14;100.00;102012.06;4962537;28;20039;-75
2023/07/07 06:10:40;;;;;;;10.95;7.57;;;;;;;16.35;100.00;102025.28;4972729;28;20046;-75
2023/07/07 06:13:28;;;;;;;9.82;7.90;;;;;;;16.52;100.00;102024.41;4983369;28;20069;-75
2023/07/07 06:16:14;;;;;;;12.50;7.57;;;;;;;16.67;100.00;102028.09;4972826;28;20465;-75
2023/07/07 06:19:01;;;;;;;10.60;7.53;;;;;;;16.82;100.00;102029.06;4956482;28;20046;-76
2023/07/07 06:21:48;;;;;;;12.23;8.20;;;;;;;17.01;100.00;102028.09;4978780;28;20132;-75
2023/07/07 06:24:33;;;;;;;9.43;7.55;;;;;;;17.25;100.00;102031.25;4963382;28;20855;-75
2023/07/07 06:27:22;;;;;;;9.32;7.35;;;;;;;17.54;100.00;102030.59;4988023;28;20117;-76
2023/07/07 06:30:07;;;;;;;11.48;7.75;;;;;;;17.68;100.00;102029.81;4975618;28;20440;-76
2023/07/07 06:32:53;;;;;;;10.75;7.03;;;;;;;17.93;100.00;102031.94;4968534;28;20038;-76
2023/07/07 06:35:39;;;;;;;9.85;7.72;;;;;;;18.14;100.00;102029.00;4973254;28;20030;-76
2023/07/07 06:38:25;;;;;;;9.32;6.95;;;;;;;18.28;100.00;102029.03;4980852;28;20035;-75
2023/07/07 06:41:16;;;;;;;9.85;7.30;;;;;;;18.46;100.00;102029.75;4973150;28;20852;-76
2023/07/07 06:44:01;;;;;;;12.40;7.45;;;;;;;18.71;100.00;102030.06;4975498;28;20639;-76
2023/07/07 06:46:47;;;;;;;9.75;6.53;;;;;;;18.89;100.00;102033.44;4986332;28;20593;-75
2023/07/07 06:49:33;;;;;;;8.95;5.82;;;;;;;19.03;100.00;102034.44;4971071;28;20030;-76
2023/07/07 06:52:24;;;;;;;8.43;6.13;;;;;;;19.09;100.00;102036.72;4986531;28;20088;-76
2023/07/07 06:55:10;;;;;;;11.98;6.60;;;;;;;19.12;100.00;102039.22;4989793;28;20041;-75
2023/07/07 06:57:56;;;;;;;13.27;6.82;;;;;;;19.21;100.00;102038.63;4971686;28;20508;-76
2023/07/07 07:00:43;;;;;;;8.38;6.00;;;;;;;19.40;100.00;102037.47;4970676;28;20042;-76
2023/07/07 07:03:32;;;;;;;9.20;6.00;;;;;;;19.51;100.00;102039.47;4965981;28;20042;-76
2023/07/07 07:06:18;;;;;;;10.13;6.10;;;;;;;19.70;100.00;102035.56;4980817;28;20961;-75
2023/07/07 07:09:03;;;;;;;8.18;5.68;;;;;;;19.90;100.00;102040.50;4983141;28;21038;-76
2023/07/07 07:11:49;;;;;;;8.20;5.32;;;;;;;20.05;100.00;102035.09;4979954;28;20493;-76
2023/07/07 07:14:35;;;;;;;7.85;5.43;;;;;;;20.21;100.00;102038.44;4975143;28;20049;-76
2023/07/07 07:17:21;;;;;;;9.25;5.70;;;;;;;20.36;100.00;102041.06;4982292;28;20042;-76
2023/07/07 07:20:10;;;;;;;6.47;4.65;;;;;;;20.57;100.00;102037.84;4983676;28;20990;-76
2023/07/07 07:22:55;;;;;;;8.05;5.10;;;;;;;20.83;100.00;102038.75;4967381;28;20457;-76
2023/07/07 07:25:44;;;;;;;6.18;4.50;;;;;;;20.93;100.00;102036.28;4982057;28;20054;-75
2023/07/07 07:28:30;;;;;;;7.18;4.60;;;;;;;21.16;100.00;102045.41;4976092;28;20522;-77
2023/07/07 07:31:16;;;;;;;6.65;4.40;;;;;;;21.35;99.34;102051.28;4983896;28;20038;-77
2023/07/07 07:34:29;;;;;;;8.93;5.20;;;;;;;21.49;92.76;102042.19;4977587;28;20048;-77
2023/07/07 07:37:15;;;;;;;9.03;4.83;;;;;;;21.63;98.40;102038.50;4983378;28;20034;-76
2023/07/07 07:40:01;;;;;;;7.22;4.25;;;;;;;21.72;98.44;102045.06;4970239;28;20042;-74
2023/07/07 07:42:47;;;;;;;4.75;3.17;;;;;;;21.77;97.00;102043.75;4985113;28;20110;-73
2023/07/07 07:45:32;;;;;;;4.80;3.63;;;;;;;22.01;96.00;102042.88;4985097;28;20050;-74
2023/07/07 07:48:18;;;;;;;5.07;3.83;;;;;;;22.30;94.75;102047.91;4984792;28;20042;-74
2023/07/07 07:51:04;;;;;;;4.88;2.75;;;;;;;22.44;94.08;102045.97;4983370;28;20048;-75
2023/07/07 07:53:50;;;;;;;4.28;2.70;;;;;;;22.60;92.85;102046.50;4986901;28;20145;-75
2023/07/07 07:56:37;;;;;;;3.78;2.42;;;;;;;22.81;92.51;102047.66;4988159;28;20480;-75
2023/07/07 07:59:23;;;;;;;5.85;2.70;;;;;;;22.84;91.57;102053.66;4977427;28;20103;-75
2023/07/07 08:02:12;;;;;;;4.13;2.83;;;;;;;22.93;87.09;102052.94;4983827;28;20045;-74
2023/07/07 08:04:58;;;;;;;5.38;2.33;;;;;;;23.00;88.04;102047.91;4978380;28;20049;-76
2023/07/07 08:07:43;;;;;;;3.00;2.40;;;;;;;23.00;88.10;102047.03;4972569;28;20256;-76
2023/07/07 08:10:29;;;;;;;4.22;2.47;;;;;;;23.05;86.86;102050.25;4980424;28;20125;-74
2023/07/07 08:13:15;;;;;;;4.65;2.30;;;;;;;23.07;87.09;102053.66;4986278;28;20664;-74
2023/07/07 08:16:01;;;;;;;4.15;2.30;;;;;;;23.26;86.22;102057.59;4977448;28;20034;-74
2023/07/07 08:18:47;;;;;;;3.28;2.22;;;;;;;23.46;84.72;102059.56;4987734;28;20026;-74
2023/07/07 08:21:34;;;;;;;2.47;2.10;;;;;;;23.42;84.44;102057.25;4988121;28;20057;-74
2023/07/07 08:24:20;;;;;;;3.85;2.10;;;;;;;23.47;83.74;102057.69;4975669;28;20830;-74
2023/07/07 08:27:07;;;;;;;4.05;2.13;;;;;;;23.50;82.95;102056.59;4987949;28;20038;-75
2023/07/07 08:29:54;;;;;;;3.28;2.00;;;;;;;23.58;82.30;102056.81;4981710;28;20041;-75
2023/07/07 08:32:40;;;;;;;2.25;2.03;;;;;;;23.70;80.88;102063.91;4974859;28;20125;-74
2023/07/07 08:35:25;;;;;;;4.07;1.98;;;;;;;23.85;81.41;102063.63;4986139;28;20049;-75
2023/07/07 08:38:11;;;;;;;4.22;2.17;;;;;;;23.92;81.40;102053.19;4972145;28;20207;-74
2023/07/07 08:40:57;;;;;;;3.92;2.08;;;;;;;23.94;80.02;102052.06;4986670;28;20034;-74
2023/07/07 08:43:44;;;;;;;2.88;2.20;;;;;;;24.08;80.13;102053.63;4986247;28;20408;-74
2023/07/07 08:46:56;;;;;;;2.78;1.90;;;;;;;24.26;74.68;102063.88;4976334;28;20061;-74
2023/07/07 08:49:51;;;;;;;2.78;1.95;;;;;;;24.38;78.60;102070.06;4986117;28;20053;-74
2023/07/07 08:52:59;;;;;;;2.83;2.10;;;;;;;24.47;76.94;102063.91;4983843;28;20038;-74
2023/07/07 08:56:10;;;;;;;2.70;1.50;;;;;;;24.63;75.76;102062.56;4985235;28;20042;-74
2023/07/07 08:59:05;;;;;;;3.05;1.98;;;;;;;24.60;75.49;102074.50;4984362;28;20038;-74
2023/07/07 09:02:10;;;;;;;3.75;2.00;;;;;;;24.63;74.66;102071.53;4987036;28;20094;-73
2023/07/07 09:05:26;;;;;;;2.92;1.90;;;;;;;24.80;73.19;102070.09;4978315;28;20049;-73
2023/07/07 09:08:38;;;;;;;3.38;1.92;;;;;;;24.79;73.83;102072.91;4969896;28;20049;-73
2023/07/07 09:11:55;;;;;;;3.25;1.80;;;;;;;24.88;69.79;102084.81;4984595;28;20045;-73
2023/07/07 09:14:43;;;;;;;1.63;1.52;;;;;;;24.90;75.50;102082.84;4970195;28;20161;-74
2023/07/07 09:17:32;;;;;;;3.97;1.83;;;;;;;24.97;73.74;102078.59;4967395;28;20042;-73
2023/07/07 09:20:19;;;;;;;2.42;1.67;;;;;;;25.16;73.10;102076.97;4954013;28;20064;-75
2023/07/07 09:23:11;;;;;;;3.13;1.83;;;;;;;25.35;70.29;102089.72;4983787;28;20036;-74
2023/07/07 09:26:03;;;;;;;8.98;2.00;;;;;;;25.52;69.51;102088.22;4969637;28;20140;-74
2023/07/07 09:28:53;;;;;;;2.83;1.70;;;;;;;25.66;70.11;102086.13;4973319;28;20034;-74
2023/07/07 09:31:45;;;;;;;3.10;1.50;;;;;;;25.87;67.41;102077.88;4973921;28;20042;-74
2023/07/07 09:34:32;;;;;;;2.17;1.58;;;;;;;25.86;67.12;102087.88;4983961;28;20038;-74
2023/07/07 09:37:42;;;;;;;2.20;1.60;;;;;;;25.78;61.69;102082.28;4986746;28;20046;-75
2023/07/07 09:40:58;;;;;;;5.20;1.50;;;;;;;25.72;62.72;102085.56;4985173;28;20203;-74
2023/07/07 09:44:03;;;;;;;1.70;1.50;;;;;;;25.81;60.85;102090.13;4983357;28;20044;-73
2023/07/07 09:47:10;;;;;;;2.95;1.90;;;;;;;25.86;58.70;102092.41;4971274;28;20046;-74
2023/07/07 09:49:58;;;;;;;4.15;1.88;;;;;;;25.79;61.06;102091.25;4985590;28;20042;-74
2023/07/07 09:53:02;;;;;;;3.22;1.75;;;;;;;25.86;58.54;102085.16;4974923;28;20060;-74
2023/07/07 09:55:48;;;;;;;2.40;1.52;;;;;;;25.85;59.79;102077.16;4983506;28;20126;-74
2023/07/07 09:58:38;;;;;;;2.65;1.40;;;;;;;25.77;59.66;102080.59;4983826;28;20049;-73
2023/07/07 10:01:29;;;;;;;2.70;1.80;;;;;;;25.79;59.65;102075.88;4973214;28;20077;-74
2023/07/07 10:04:37;;;;;;;2.28;1.70;;;;;;;25.93;57.07;102081.88;4971295;28;20113;-74
2023/07/07 10:07:24;;;;;;;2.03;1.60;;;;;;;25.89;58.05;102084.00;4979738;28;20081;-74
2023/07/07 10:10:13;;;;;;;3.20;1.52;;;;;;;25.84;56.41;102079.03;4989445;28;20030;-74
2023/07/07 10:12:59;;;;;;;1.85;1.40;;;;;;;25.81;58.04;102084.72;4958337;28;20362;-74
2023/07/07 10:15:50;;;;;;;2.88;1.70;;;;;;;25.84;56.35;102084.44;4976448;28;20054;-74
2023/07/07 10:18:36;;;;;;;4.70;1.88;;;;;;;25.94;58.19;102089.88;4986323;28;20113;-73
2023/07/07 10:21:22;;;;;;;1.90;1.33;;;;;;;25.93;57.36;102090.84;4977195;28;20046;-74
2023/07/07 10:24:11;;;;;;;3.03;1.90;;;;;;;25.92;56.85;102091.00;4975104;28;20057;-74
2023/07/07 10:27:00;;;;;;;2.80;1.67;;;;;;;26.00;56.73;102096.59;4973903;28;20042;-74
2023/07/07 10:29:46;;;;;;;2.30;1.80;;;;;;;26.06;56.72;102087.00;4964229;28;20057;-73
2023/07/07 10:32:31;;;;;;;2.60;1.33;;;;;;;26.03;55.84;102093.56;4976355;28;20084;-74
2023/07/07 10:35:23;;;;;;;3.10;1.80;;;;;;;25.98;55.92;102090.44;4970287;28;20038;-73
2023/07/07 10:38:10;;;;;;;2.60;1.70;;;;;;;25.96;55.91;102089.72;4965607;28;20736;-75
2023/07/07 10:40:58;;;;;;;2.63;1.73;;;;;;;25.86;55.36;102092.41;4964128;28;20068;-74
2023/07/07 10:43:47;;;;;;;2.40;1.65;;;;;;;25.89;55.79;102087.56;4977259;28;20038;-73
2023/07/07 10:46:33;;;;;;;2.08;1.60;;;;;;;25.95;55.35;102090.72;4969584;28;20076;-73
2023/07/07 10:49:24;;;;;;;2.20;1.52;;;;;;;25.98;55.30;102087.75;4981429;28;21881;-73
2023/07/07 10:52:44;;;;;;;3.85;1.70;;;;;;;26.14;53.04;102096.16;4970349;28;20041;-73
2023/07/07 10:56:08;;;;;;;3.30;1.85;;;;;;;26.16;51.75;102094.16;4984884;28;20038;-75
2023/07/07 10:59:26;;;;;;;3.70;1.70;;;;;;;26.19;50.60;102092.16;4978346;28;20062;-74
2023/07/07 11:02:30;;;;;;;1.85;1.60;;;;;;;26.21;51.20;102085.59;4968266;28;21418;-73
2023/07/07 11:05:22;;;;;;;2.75;1.80;;;;;;;26.12;52.04;102089.16;4982719;28;20048;-74
2023/07/07 11:08:17;;;;;;;3.03;1.75;;;;;;;25.98;51.61;102085.88;4977977;28;20036;-75
2023/07/07 11:11:17;;;;;;;2.88;1.98;;;;;;;26.05;51.20;102091.59;4979176;28;20104;-74
2023/07/07 11:14:10;;;;;;;2.75;1.77;;;;;;;26.09;52.47;102090.28;4963434;28;20052;-74
2023/07/07 11:17:04;;;;;;;;;;;;;;;26.08;48.09;102085.88;4967975;28;20784;-74
2023/07/07 11:20:23;;;;;;;2.30;1.70;;;;;;;26.12;50.44;102087.31;4968223;28;19984;-75
2023/07/07 11:23:24;;;;;;;2.85;1.80;;;;;;;26.19;51.06;102084.03;4973320;28;22007;-74
2023/07/07 11:26:19;;;;;;;3.50;1.77;;;;;;;26.30;50.89;102089.31;4982330;28;20930;-75
2023/07/07 11:29:31;;;;;;;2.60;1.80;;;;;;;26.32;51.47;102087.34;4975083;28;20136;-75
2023/07/07 11:32:24;;;;;;;2.60;1.63;;;;;;;26.34;53.23;102079.91;4987584;28;20057;-75
2023/07/07 11:35:39;;;;;;;2.35;1.80;;;;;;;26.37;49.16;102085.03;4989028;28;20906;-75
2023/07/07 11:38:49;;;;;;;1.83;1.55;;;;;;;26.36;49.82;102083.31;4977552;28;20117;-75
2023/07/07 11:41:58;;;;;;;2.60;1.70;;;;;;;26.43;49.42;102089.88;4988752;28;20033;-75
2023/07/07 11:45:10;;;;;;;3.50;1.80;;;;;;;26.45;49.09;102081.59;4980894;28;20081;-74
2023/07/07 11:48:32;;;;;;;2.63;1.48;;;;;;;26.44;45.81;102082.59;4974267;28;20117;-74
2023/07/07 11:51:33;;;;;;;2.47;1.75;;;;;;;26.33;51.66;102070.03;4973121;28;20402;-75
2023/07/07 11:54:41;;;;;;;2.75;1.80;;;;;;;26.24;51.26;102079.91;4987081;28;20042;-75
2023/07/07 11:57:53;;;;;;;4.72;1.80;;;;;;;26.24;52.16;102070.88;4990018;28;20397;-75
2023/07/07 12:01:01;;;;;;;2.30;1.67;;;;;;;26.31;52.27;102077.47;4976315;28;20129;-75
2023/07/07 12:03:59;;;;;;;1.90;1.45;;;;;;;26.46;50.47;102071.59;4987419;28;20065;-74
2023/07/07 12:06:48;;;;;;;2.90;1.55;;;;;;;26.54;51.91;102071.72;4970509;28;20043;-75
2023/07/07 12:09:39;;;;;;;2.90;1.52;;;;;;;26.47;50.04;102070.59;4981577;28;20061;-74
2023/07/07 12:12:41;;;;;;;3.60;2.30;;;;;;;26.47;48.98;102066.00;4977263;28;20037;-75
2023/07/07 12:15:34;;;;;;;3.00;2.00;;;;;;;26.42;49.68;102061.03;4985422;28;20556;-75
2023/07/07 12:18:31;;;;;;;2.75;1.70;;;;;;;26.51;50.97;102062.00;4974980;28;20037;-75
2023/07/07 12:21:20;;;;;;;3.25;2.08;;;;;;;26.58;50.46;102065.00;4986243;28;20057;-74
2023/07/07 12:24:19;;;;;;;3.17;1.85;;;;;;;26.58;49.08;102067.72;4973571;28;21836;-75
2023/07/07 12:27:21;;;;;;;3.15;2.10;;;;;;;26.66;47.56;102056.97;4965666;28;20040;-78
2023/07/07 12:30:12;;;;;;;3.33;1.90;;;;;;;26.64;51.99;102048.09;4973894;28;20117;-75
2023/07/07 12:32:58;;;;;;;2.20;1.70;;;;;;;26.64;51.39;102047.25;4977143;28;20611;-75
2023/07/07 12:35:56;;;;;;;2.20;1.70;;;;;;;26.64;49.56;102053.53;4989672;28;20125;-73
2023/07/07 12:38:42;;;;;;;2.40;1.80;;;;;;;26.65;51.90;102057.13;4985412;28;20088;-73
2023/07/07 12:41:29;;;;;;;3.33;2.00;;;;;;;26.69;51.59;102039.53;4987880;28;20053;-74
2023/07/07 12:44:14;;;;;;;4.38;1.95;;;;;;;26.70;51.67;102042.09;4985230;28;20069;-73
2023/07/07 12:47:17;;;;;;;3.50;2.15;;;;;;;26.66;49.28;102047.97;4981711;28;20054;-73
2023/07/07 12:50:10;;;;;;;3.05;2.05;;;;;;;26.68;51.91;102048.66;4974377;28;20586;-74
2023/07/07 12:53:03;;;;;;;2.05;1.70;;;;;;;26.77;51.60;102049.66;4979124;28;20033;-74
2023/07/07 12:56:07;;;;;;;;;;;;;;;26.81;46.43;102046.47;4980741;28;20509;-75
2023/07/07 12:58:56;;;;;;;3.75;2.00;;;;;;;26.75;52.51;102029.94;4982516;28;19972;-74
2023/07/07 13:01:42;;;;;;;2.58;1.85;;;;;;;26.74;53.21;102034.50;4983917;28;22255;-74
2023/07/07 13:04:42;;;;;;;3.00;2.22;;;;;;;26.83;51.15;102036.34;4976956;28;21041;-74
2023/07/07 13:07:30;;;;;;;3.92;2.20;;;;;;;26.96;52.06;102033.31;4975239;28;20134;-73